createdAt,value
2018-05-12T00:59:35.634Z,96.40
2018-05-12T01:02:03.124Z,96.40
2018-05-12T01:04:30.629Z,96.30
2018-05-12T01:06:58.128Z,96.00
2018-05-12T01:09:25.965Z,96.40
2018-05-12T01:11:53.458Z,96.60
2018-05-12T01:14:20.958Z,96.80
2018-05-12T01:16:48.812Z,96.90
2018-05-12T01:19:16.320Z,97.10
2018-05-12T01:21:43.825Z,97.10
2018-05-12T01:24:11.734Z,97.00
2018-05-12T01:26:39.245Z,97.10
2018-05-12T01:29:07.522Z,97.20
2018-05-12T01:31:35.786Z,97.50
2018-05-12T01:34:04.075Z,97.40
2018-05-12T01:36:32.873Z,97.60
2018-05-12T01:39:00.382Z,97.50
2018-05-12T01:41:27.876Z,97.50
2018-05-12T01:43:56.378Z,97.90
2018-05-12T01:46:23.888Z,97.90
2018-05-12T01:48:51.387Z,97.90
2018-05-12T01:51:18.892Z,98.00
2018-05-12T01:53:46.385Z,98.00
2018-05-12T01:56:14.892Z,98.00
2018-05-12T01:58:42.368Z,97.90
2018-05-12T02:01:10.033Z,98.10
2018-05-12T02:03:37.538Z,98.20
2018-05-12T02:06:05.821Z,98.20
2018-05-12T02:08:34.333Z,98.20
2018-05-12T02:11:01.829Z,98.20
2018-05-12T02:13:29.329Z,98.10
2018-05-12T02:15:56.893Z,98.00
2018-05-12T02:18:24.621Z,98.10
2018-05-12T02:20:52.599Z,98.20
2018-05-12T02:23:20.855Z,98.40
2018-05-12T02:25:48.340Z,98.40
2018-05-12T02:28:15.864Z,98.40
2018-05-12T02:30:43.365Z,98.40
2018-05-12T02:33:11.624Z,98.10
2018-05-12T02:35:39.180Z,98.10
2018-05-12T02:38:07.166Z,98.20
2018-05-12T02:40:34.695Z,98.30
2018-05-12T02:43:02.180Z,98.30
2018-05-12T02:45:30.440Z,98.40
2018-05-12T02:47:57.947Z,98.40
2018-05-12T02:50:25.451Z,98.20
2018-05-12T02:52:52.961Z,98.20
2018-05-12T02:55:20.992Z,98.20
2018-05-12T02:57:49.252Z,98.40
2018-05-12T03:00:16.785Z,98.30
2018-05-12T03:02:44.691Z,98.50
2018-05-12T03:05:13.045Z,98.40
2018-05-12T03:07:40.557Z,98.40
2018-05-12T03:10:08.093Z,98.50
2018-05-12T03:12:36.355Z,98.50
2018-05-12T03:15:03.847Z,98.40
2018-05-12T03:17:31.357Z,98.50
2018-05-12T03:19:59.103Z,98.70
2018-05-12T03:22:26.762Z,99.00
2018-05-12T03:24:54.794Z,99.30
2018-05-12T03:27:22.298Z,99.20
2018-05-12T03:29:49.834Z,99.20
2018-05-12T04:04:59.104Z,97.30
2018-05-12T04:07:38.268Z,97.30
2018-05-12T04:10:20.482Z,97.10
2018-05-12T04:12:48.744Z,97.20
2018-05-12T04:15:17.591Z,97.00
2018-05-12T04:17:45.244Z,96.90
2018-05-12T04:20:12.738Z,97.20
2018-05-12T04:22:40.235Z,97.10
2018-05-12T04:25:08.238Z,96.60
2018-05-12T04:27:35.728Z,96.50
2018-05-12T04:30:03.286Z,95.90
2018-05-12T04:32:30.804Z,96.10
2018-05-12T04:34:58.311Z,95.80
2018-05-12T04:37:26.904Z,95.60
2018-05-12T04:39:54.587Z,95.60
2018-05-12T04:42:22.274Z,95.70
2018-05-12T04:44:49.762Z,95.10
2018-05-12T04:47:17.248Z,94.70
2018-05-12T04:49:44.775Z,94.70
2018-05-12T04:52:12.580Z,93.80
2018-05-12T04:54:40.143Z,94.10
2018-05-12T04:57:07.640Z,92.70
2018-05-12T04:59:35.672Z,91.70
2018-05-12T05:02:03.200Z,91.40
2018-05-12T05:04:30.724Z,91.40
2018-05-12T05:06:58.213Z,92.10
2018-05-12T05:09:26.051Z,91.90
2018-05-12T05:11:53.576Z,91.60
2018-05-12T05:14:21.372Z,91.00
2018-05-12T05:16:48.885Z,90.40
2018-05-12T05:19:17.284Z,89.70
2018-05-12T05:21:45.318Z,89.70
2018-05-12T05:24:13.612Z,88.90
2018-05-12T05:26:42.101Z,86.20
2018-05-12T05:29:10.134Z,86.10
2018-05-12T05:31:37.624Z,84.90
2018-05-12T05:34:05.124Z,84.80
2018-05-12T05:36:32.610Z,83.70
2018-05-12T05:39:00.143Z,84.80
2018-05-12T05:41:27.687Z,82.50
2018-05-12T05:43:55.253Z,81.10
2018-05-12T05:46:22.761Z,78.40
2018-05-12T05:48:51.278Z,77.70
2018-05-12T05:51:18.781Z,77.60
2018-05-12T05:53:46.309Z,73.50
2018-05-12T05:56:13.830Z,68.90
2018-05-12T05:58:41.354Z,63.10
2018-05-12T06:01:09.139Z,59.20
2018-05-12T06:03:36.675Z,54.50
2018-05-12T06:06:04.790Z,51.00
2018-05-12T06:08:32.325Z,48.00
2018-05-12T06:11:00.593Z,46.00
2018-05-12T06:13:28.085Z,46.00
2018-05-12T06:15:55.587Z,43.80
2018-05-12T06:18:23.072Z,44.60
2018-05-12T06:20:51.341Z,43.10
2018-05-12T06:23:19.358Z,43.00
2018-05-12T06:25:46.872Z,43.30
2018-05-12T06:28:14.762Z,44.20
2018-05-12T06:30:42.305Z,45.20
2018-05-12T06:33:10.554Z,42.40
2018-05-12T06:35:38.079Z,42.30
2018-05-12T06:38:05.574Z,41.10
2018-05-12T06:40:33.628Z,39.70
2018-05-12T06:43:01.117Z,39.30
2018-05-12T06:45:28.701Z,38.90
2018-05-12T06:47:56.197Z,36.90
2018-05-12T06:50:23.722Z,37.90
2018-05-12T06:52:51.583Z,35.20
2018-05-12T06:55:19.188Z,35.50
2018-05-12T06:57:47.034Z,36.00
2018-05-12T07:00:14.571Z,36.40
2018-05-12T07:02:42.141Z,35.80
2018-05-12T07:05:09.672Z,34.60
2018-05-12T07:07:37.212Z,34.50
2018-05-12T07:10:05.293Z,34.30
2018-05-12T07:12:33.683Z,33.30
2018-05-12T07:15:01.975Z,35.90
2018-05-12T07:17:29.887Z,35.90
2018-05-12T07:19:57.418Z,34.90
2018-05-12T07:22:24.931Z,34.00
2018-05-12T07:24:52.426Z,32.80
2018-05-12T07:27:19.967Z,31.50
2018-05-12T07:29:48.051Z,30.70
2018-05-12T07:32:15.591Z,33.50
2018-05-12T07:34:43.958Z,34.70
2018-05-12T07:37:11.559Z,34.60
2018-05-12T07:39:39.087Z,35.40
2018-05-12T07:42:07.405Z,32.70
2018-05-12T07:44:34.923Z,32.70
2018-05-12T07:47:02.550Z,31.60
2018-05-12T07:49:31.361Z,31.10
2018-05-12T07:51:59.625Z,31.30
2018-05-12T07:54:27.118Z,31.30
2018-05-12T07:56:54.704Z,32.10
2018-05-12T07:59:22.261Z,34.30
2018-05-12T08:01:50.019Z,32.50
2018-05-12T08:04:17.534Z,31.80
2018-05-12T08:06:46.294Z,30.60
2018-05-12T08:09:13.859Z,30.50
2018-05-12T08:11:41.399Z,31.90
2018-05-12T08:14:08.877Z,33.10
2018-05-12T08:16:36.365Z,32.90
2018-05-12T08:19:05.179Z,30.80
2018-05-12T08:21:32.745Z,30.70
2018-05-12T08:24:00.252Z,33.80
2018-05-12T08:26:28.415Z,33.90
2018-05-12T08:28:55.917Z,33.70
2018-05-12T08:31:23.541Z,31.20
2018-05-12T08:33:51.057Z,30.00
2018-05-12T08:36:18.586Z,30.00
2018-05-12T08:38:46.333Z,29.60
2018-05-12T08:41:15.160Z,30.40
2018-05-12T08:43:42.679Z,30.30
2018-05-12T08:46:10.189Z,31.30
2018-05-12T08:48:37.690Z,33.70
2018-05-12T08:51:05.208Z,34.00
2018-05-12T08:53:32.703Z,31.30
2018-05-12T14:07:11.094Z,35.50
2018-05-12T14:09:39.015Z,35.40
2018-05-12T14:12:06.523Z,35.90
2018-05-12T14:14:34.032Z,35.50
2018-05-12T14:17:01.526Z,35.20
2018-05-12T14:19:29.021Z,33.60
2018-05-12T14:21:57.616Z,34.90
2018-05-12T14:24:26.603Z,32.60
2018-05-12T14:26:54.892Z,34.10
2018-05-12T14:29:22.378Z,34.10
2018-05-12T14:31:50.481Z,34.60
2018-05-12T14:34:17.985Z,34.20
2018-05-12T14:36:45.588Z,32.30
2018-05-12T14:39:14.017Z,31.20
2018-05-12T14:41:41.521Z,32.30
2018-05-12T14:44:09.544Z,32.00
2018-05-12T14:46:37.056Z,33.70
2018-05-12T14:49:04.660Z,35.00
2018-05-12T14:51:32.755Z,35.70
2018-05-12T14:54:00.261Z,36.80
2018-05-12T14:56:27.857Z,36.00
2018-05-12T14:58:55.357Z,34.80
2018-05-12T15:01:22.884Z,34.40
2018-05-12T15:03:55.006Z,34.40
2018-05-12T15:06:24.939Z,34.30
2018-05-12T15:08:53.106Z,33.50
2018-05-12T15:11:22.113Z,34.30
2018-05-12T15:13:52.976Z,34.70
2018-05-12T15:16:21.045Z,34.30
2018-05-12T15:18:49.837Z,33.70
2018-05-12T15:21:17.457Z,35.50
2018-05-12T15:23:45.146Z,33.80
2018-05-12T15:26:12.793Z,34.60
2018-05-12T15:28:41.044Z,33.70
2018-05-12T15:31:08.633Z,33.70
2018-05-12T15:33:36.135Z,34.30
2018-05-12T15:36:03.677Z,34.70
2018-05-12T15:38:31.820Z,32.90
2018-05-12T15:40:59.336Z,33.60
2018-05-12T15:43:26.832Z,34.90
2018-05-12T15:45:54.330Z,34.90
2018-05-12T15:48:21.961Z,35.10
2018-05-12T15:50:49.587Z,33.40
2018-05-12T15:53:17.064Z,33.60
2018-05-12T15:55:45.165Z,31.90
2018-05-12T15:58:12.687Z,32.10
2018-05-12T16:00:40.936Z,32.80
2018-05-12T16:03:08.536Z,32.50
2018-05-12T16:05:36.601Z,32.40
2018-05-12T16:08:04.302Z,33.30
2018-05-12T16:10:32.145Z,33.40
2018-05-12T16:12:59.916Z,34.40
2018-05-12T16:15:27.421Z,34.70
2018-05-12T16:17:54.965Z,34.50
2018-05-12T16:20:22.635Z,34.60
2018-05-12T16:22:50.757Z,33.60
2018-05-12T16:25:18.312Z,33.70
2018-05-12T16:27:45.827Z,33.50
2018-05-12T16:30:13.745Z,34.30
2018-05-12T16:32:41.833Z,34.00
2018-05-12T16:35:09.379Z,33.30
2018-05-12T16:37:37.292Z,34.20
2018-05-12T16:40:05.444Z,34.60
2018-05-12T16:42:32.937Z,35.30
2018-05-12T16:45:00.425Z,35.40
2018-05-12T16:47:27.928Z,36.00
2018-05-12T16:49:55.452Z,37.00
2018-05-12T16:52:22.986Z,37.60
2018-05-12T16:54:50.501Z,37.70
2018-05-12T16:57:18.000Z,38.10
2018-05-12T16:59:45.496Z,38.60
2018-05-12T17:02:12.997Z,38.70
2018-05-12T17:04:41.232Z,37.50
2018-05-12T17:07:08.757Z,37.70
2018-05-12T17:09:37.029Z,36.50
2018-05-12T17:12:05.281Z,37.60
2018-05-12T17:14:32.766Z,37.60
2018-05-12T17:17:01.167Z,38.30
2018-05-12T17:19:28.671Z,38.20
2018-05-12T17:21:56.910Z,38.20
2018-05-12T17:24:24.467Z,38.80
2018-05-12T17:26:52.212Z,38.60
2018-05-12T17:29:20.740Z,38.90
2018-05-12T17:31:49.048Z,39.30
2018-05-12T17:34:16.854Z,39.20
2018-05-12T17:36:44.352Z,39.30
2018-05-12T17:39:12.233Z,39.70
2018-05-12T17:41:39.765Z,39.70
2018-05-12T17:44:07.271Z,39.90
2018-05-12T17:46:35.570Z,40.20
2018-05-12T17:49:03.063Z,41.00
2018-05-12T17:51:30.570Z,42.70
2018-05-12T17:53:58.839Z,44.80
2018-05-12T17:56:27.116Z,45.20
2018-05-12T17:58:54.620Z,45.10
2018-05-12T18:01:22.129Z,45.70
2018-05-12T18:03:50.600Z,46.70
2018-05-12T18:06:18.842Z,46.70
2018-05-12T18:08:46.562Z,47.40
2018-05-12T18:11:14.249Z,47.90
2018-05-12T18:13:41.740Z,48.50
2018-05-12T18:16:09.232Z,48.70
2018-05-12T18:18:37.693Z,48.70
2018-05-12T18:21:05.238Z,49.20
2018-05-12T18:23:32.762Z,49.20
2018-05-12T18:26:00.368Z,49.30
2018-05-12T18:28:28.712Z,49.80
2018-05-12T18:31:03.993Z,49.70
2018-05-12T18:33:31.930Z,50.00
2018-05-12T18:35:59.429Z,50.30
2018-05-12T18:38:27.771Z,51.10
2018-05-12T18:40:55.373Z,51.70
2018-05-12T18:43:23.680Z,51.40
2018-05-12T18:45:51.176Z,51.30
2018-05-12T18:48:19.226Z,51.80
2018-05-12T18:50:46.785Z,52.20
2018-05-12T18:53:14.258Z,52.80
2018-05-12T18:55:41.756Z,53.20
2018-05-12T18:58:09.253Z,53.60
2018-05-12T19:00:36.794Z,54.10
2018-05-12T19:03:04.287Z,54.50
2018-05-12T19:05:31.781Z,54.90
2018-05-12T19:08:00.044Z,55.60
2018-05-12T19:10:28.389Z,56.00
2018-05-12T19:12:55.905Z,56.00
2018-05-12T19:15:23.444Z,56.30
2018-05-12T19:17:50.949Z,56.60
2018-05-12T19:20:18.480Z,56.90
2018-05-12T19:22:45.974Z,57.20
2018-05-12T19:25:13.502Z,57.60
2018-05-12T19:27:41.753Z,58.10
2018-05-12T19:30:09.257Z,58.10
2018-05-12T19:32:36.789Z,58.60
2018-05-12T19:35:05.797Z,59.10
2018-05-12T19:37:33.305Z,59.00
2018-05-12T19:40:00.866Z,59.20
2018-05-12T19:42:28.368Z,59.30
2018-05-12T19:44:55.916Z,59.60
2018-05-12T19:47:23.417Z,59.80
2018-05-12T19:49:51.323Z,60.20
2018-05-12T19:52:18.889Z,60.30
2018-05-12T19:54:47.150Z,60.70
2018-05-12T19:57:14.961Z,60.70
2018-05-12T19:59:42.462Z,60.90
2018-05-12T20:02:09.984Z,61.50
2018-05-12T20:04:37.962Z,61.50
2018-05-12T20:07:05.520Z,62.40
2018-05-12T20:09:33.036Z,63.10
2018-05-12T20:12:01.324Z,63.90
2018-05-12T20:14:29.606Z,64.20
2018-05-12T20:16:57.914Z,64.80
2018-05-12T20:19:25.432Z,64.70
2018-05-12T20:21:53.698Z,65.80
2018-05-12T20:24:21.982Z,66.40
2018-05-12T20:26:50.249Z,67.60
2018-05-12T20:29:18.511Z,67.20
2018-05-12T20:31:46.728Z,67.20
2018-05-12T20:34:14.256Z,67.70
2018-05-12T20:36:49.869Z,68.00
2018-05-12T20:39:17.393Z,68.20
2018-05-12T20:41:44.878Z,68.60
2018-05-12T20:44:12.393Z,68.60
2018-05-12T20:46:40.815Z,69.30
2018-05-12T20:49:08.376Z,69.20
2018-05-12T20:51:36.284Z,69.30
2018-05-12T20:54:03.785Z,69.30
2018-05-12T20:56:31.291Z,69.40
2018-05-12T20:58:58.892Z,69.60
2018-05-12T21:01:26.454Z,69.80
2018-05-12T21:03:53.963Z,70.30
2018-05-12T21:06:21.473Z,70.40
2018-05-12T21:08:49.117Z,70.80
2018-05-12T21:11:16.625Z,71.20
2018-05-12T21:13:44.698Z,71.50
2018-05-12T21:16:12.349Z,72.10
2018-05-12T21:18:39.865Z,72.20
2018-05-12T21:21:08.275Z,73.10
2018-05-12T21:23:35.857Z,72.90
2018-05-12T21:26:03.315Z,73.60
2018-05-12T21:28:30.862Z,74.20
2018-05-12T21:30:58.357Z,74.70
2018-05-12T21:33:25.868Z,75.30
2018-05-12T21:35:54.056Z,75.50
2018-05-12T21:38:21.689Z,76.30
2018-05-12T21:40:49.576Z,76.90
2018-05-12T21:43:17.057Z,77.10
2018-05-12T21:45:44.561Z,77.30
2018-05-12T21:48:12.824Z,78.00
2018-05-12T21:50:41.239Z,78.90
2018-05-12T21:53:08.722Z,78.80
2018-05-12T21:55:36.331Z,78.70
